createdAt,value
2016-08-17T00:00:19.588Z,22.78
2016-08-17T00:01:19.565Z,22.86
2016-08-17T00:02:19.595Z,22.86
2016-08-17T00:03:19.619Z,22.86
2016-08-17T00:04:19.631Z,22.85
2016-08-17T00:05:19.609Z,22.81
2016-08-17T00:06:19.618Z,22.86
2016-08-17T00:07:19.642Z,22.76
2016-08-17T00:08:19.657Z,22.82
2016-08-17T00:09:19.661Z,22.85
2016-08-17T00:10:19.702Z,22.84
2016-08-17T00:11:19.675Z,22.75
2016-08-17T00:12:19.714Z,22.79
2016-08-17T00:13:19.677Z,22.84
2016-08-17T00:14:19.733Z,22.84
2016-08-17T00:15:19.687Z,22.82
2016-08-17T00:16:19.703Z,22.78
2016-08-17T00:17:19.725Z,22.71
2016-08-17T00:18:19.732Z,22.71
2016-08-17T00:19:19.774Z,22.76
2016-08-17T00:20:19.740Z,22.85
2016-08-17T00:21:19.782Z,22.69
2016-08-17T00:22:19.770Z,22.79
2016-08-17T00:23:19.810Z,22.75
2016-08-17T00:24:19.781Z,22.7
2016-08-17T00:25:19.839Z,22.73
2016-08-17T00:26:19.820Z,22.81
2016-08-17T00:27:19.803Z,22.76
2016-08-17T00:28:19.824Z,22.71
2016-08-17T00:29:19.840Z,22.81
2016-08-17T00:30:19.840Z,22.67
2016-08-17T00:31:19.830Z,22.69
2016-08-17T00:32:19.863Z,22.67
2016-08-17T00:33:19.854Z,22.75
2016-08-17T00:34:19.868Z,22.75
2016-08-17T00:35:19.877Z,22.7
2016-08-17T00:36:19.892Z,22.67
2016-08-17T00:37:19.872Z,22.81
2016-08-17T00:38:19.890Z,22.79
2016-08-17T00:39:19.925Z,22.69
2016-08-17T00:40:19.928Z,22.81
2016-08-17T00:41:19.970Z,22.69
2016-08-17T00:42:19.944Z,22.71
2016-08-17T00:43:19.935Z,22.82
2016-08-17T00:44:19.952Z,22.76
2016-08-17T00:45:19.967Z,22.76
2016-08-17T00:46:19.988Z,22.7
2016-08-17T00:47:19.977Z,22.75
2016-08-17T00:48:19.976Z,22.76
2016-08-17T00:49:20.018Z,22.75
2016-08-17T00:50:20.021Z,22.7
2016-08-17T00:51:20.012Z,22.73
2016-08-17T00:52:20.029Z,22.67
2016-08-17T00:53:20.041Z,22.78
2016-08-17T00:54:20.047Z,22.71
2016-08-17T00:55:20.047Z,22.78
2016-08-17T00:56:20.069Z,22.78
2016-08-17T00:57:20.059Z,22.66
2016-08-17T00:58:20.086Z,22.7
2016-08-17T00:59:20.087Z,22.66
2016-08-17T01:00:20.102Z,22.71
2016-08-17T01:01:20.125Z,22.75
2016-08-17T01:02:20.097Z,22.73
2016-08-17T01:03:20.124Z,22.75
2016-08-17T01:04:20.133Z,22.73
2016-08-17T01:05:20.159Z,22.66
2016-08-17T01:06:20.158Z,22.69
2016-08-17T01:07:20.160Z,22.7
2016-08-17T01:08:20.181Z,22.75
2016-08-17T01:09:20.173Z,22.66
2016-08-17T01:10:20.187Z,22.7
2016-08-17T01:11:20.190Z,22.71
2016-08-17T01:12:20.195Z,22.69
2016-08-17T01:13:20.232Z,22.75
2016-08-17T01:14:20.215Z,22.59
2016-08-17T01:15:20.233Z,22.71
2016-08-17T01:16:20.962Z,22.67
2016-08-17T01:17:20.253Z,22.57
2016-08-17T01:18:20.245Z,22.67
2016-08-17T01:19:20.261Z,22.71
2016-08-17T01:20:20.287Z,22.6
2016-08-17T01:21:20.277Z,22.67
2016-08-17T01:22:20.306Z,22.57
2016-08-17T01:23:20.313Z,22.64
2016-08-17T01:24:20.303Z,22.52
2016-08-17T01:25:20.321Z,22.57
2016-08-17T01:26:20.329Z,22.63
2016-08-17T01:27:20.316Z,22.61
2016-08-17T01:28:20.351Z,22.59
2016-08-17T01:29:21.087Z,22.67
2016-08-17T01:30:20.356Z,22.57
2016-08-17T01:31:20.356Z,22.57
2016-08-17T01:32:20.376Z,22.66
2016-08-17T01:33:20.388Z,22.6
2016-08-17T01:34:20.383Z,22.57
2016-08-17T01:35:20.398Z,22.66
2016-08-17T01:36:20.435Z,22.6
2016-08-17T01:37:20.446Z,22.52
2016-08-17T01:38:20.433Z,22.57
2016-08-17T01:39:20.439Z,22.66
2016-08-17T01:40:20.447Z,22.59
2016-08-17T01:41:20.505Z,22.59
2016-08-17T01:42:20.465Z,22.57
2016-08-17T01:43:20.459Z,22.6
2016-08-17T01:44:20.483Z,22.55
2016-08-17T01:45:20.501Z,22.59
2016-08-17T01:46:20.480Z,22.59
2016-08-17T01:47:20.499Z,22.52
2016-08-17T01:48:20.526Z,22.59
2016-08-17T01:49:20.526Z,22.64
2016-08-17T01:50:20.523Z,22.66
2016-08-17T01:51:20.553Z,22.6
2016-08-17T01:52:20.563Z,22.52
2016-08-17T01:53:20.553Z,22.63
2016-08-17T01:54:20.552Z,22.54
2016-08-17T01:55:20.581Z,22.59
2016-08-17T01:56:20.596Z,22.6
2016-08-17T01:57:20.587Z,22.59
2016-08-17T01:58:20.618Z,22.59
2016-08-17T01:59:20.605Z,22.6
2016-08-17T02:00:20.611Z,22.59
2016-08-17T02:01:20.636Z,22.64
2016-08-17T02:02:20.635Z,22.63
2016-08-17T02:03:20.654Z,22.54
2016-08-17T02:04:20.650Z,22.6
2016-08-17T02:05:20.672Z,22.59
2016-08-17T02:06:20.682Z,22.6
2016-08-17T02:07:20.700Z,22.6
2016-08-17T02:08:20.677Z,22.55
2016-08-17T02:09:20.708Z,22.55
2016-08-17T02:10:20.728Z,22.55
2016-08-17T02:11:20.703Z,22.57
2016-08-17T02:12:20.734Z,22.57
2016-08-17T02:13:20.744Z,22.54
2016-08-17T02:14:20.748Z,22.57
2016-08-17T02:15:20.745Z,22.6
2016-08-17T02:16:20.764Z,22.51
2016-08-17T02:17:20.758Z,22.48
2016-08-17T02:18:20.779Z,22.55
2016-08-17T02:19:20.792Z,22.54
2016-08-17T02:20:20.796Z,22.54
2016-08-17T02:21:20.804Z,22.54
2016-08-17T02:22:20.815Z,22.51
2016-08-17T02:23:20.803Z,22.52
2016-08-17T02:24:20.835Z,22.55
2016-08-17T02:25:20.843Z,22.51
2016-08-17T02:26:20.839Z,22.54
2016-08-17T02:27:20.862Z,22.57
2016-08-17T02:28:20.855Z,22.51
2016-08-17T02:29:20.876Z,22.51
2016-08-17T02:30:20.886Z,22.51
2016-08-17T02:31:20.882Z,22.45
2016-08-17T02:32:20.907Z,22.49
2016-08-17T02:33:20.903Z,22.51
2016-08-17T02:34:20.901Z,22.48
2016-08-17T02:35:20.946Z,22.48
2016-08-17T02:36:20.966Z,22.48
2016-08-17T02:37:20.926Z,22.44
2016-08-17T02:38:20.952Z,22.48
2016-08-17T02:39:20.967Z,22.55
2016-08-17T02:40:20.986Z,22.46
2016-08-17T02:41:21.173Z,22.45
2016-08-17T02:42:20.986Z,22.48
2016-08-17T02:43:20.986Z,22.51
2016-08-17T02:44:21.012Z,22.55
2016-08-17T02:45:21.025Z,22.45
2016-08-17T02:46:21.009Z,22.51
2016-08-17T02:47:21.030Z,22.45
2016-08-17T02:48:21.035Z,22.48
2016-08-17T02:49:21.052Z,22.48
2016-08-17T02:50:21.072Z,22.44
2016-08-17T02:51:21.081Z,22.48
2016-08-17T02:52:21.081Z,22.48
2016-08-17T02:53:21.087Z,22.54
2016-08-17T02:54:21.103Z,22.46
2016-08-17T02:55:21.104Z,22.41
2016-08-17T02:56:21.112Z,22.39
2016-08-17T02:57:21.117Z,22.42
2016-08-17T02:58:21.132Z,22.45
2016-08-17T02:59:21.135Z,22.44
2016-08-17T03:00:21.141Z,22.45
2016-08-17T03:01:21.167Z,22.44
2016-08-17T03:02:21.166Z,22.51
2016-08-17T03:03:21.163Z,22.38
2016-08-17T03:04:21.203Z,22.41
2016-08-17T03:05:21.197Z,22.44
2016-08-17T03:06:21.201Z,22.41
2016-08-17T03:07:21.225Z,22.46
2016-08-17T03:08:21.232Z,22.39
2016-08-17T03:09:21.230Z,22.49
2016-08-17T03:10:21.923Z,22.41
2016-08-17T03:11:21.238Z,22.46
2016-08-17T03:12:21.249Z,22.44
2016-08-17T03:13:21.250Z,22.44
2016-08-17T03:14:21.276Z,22.44
2016-08-17T03:15:21.258Z,22.44
2016-08-17T03:16:21.288Z,22.44
2016-08-17T03:17:21.301Z,22.51
2016-08-17T03:18:21.300Z,22.49
2016-08-17T03:19:21.321Z,22.41
2016-08-17T03:20:21.316Z,22.52
2016-08-17T03:21:21.317Z,22.49
2016-08-17T03:22:21.340Z,22.39
2016-08-17T03:23:21.331Z,22.41
2016-08-17T03:24:21.347Z,22.42
2016-08-17T03:25:21.378Z,22.44
2016-08-17T03:26:21.379Z,22.38
2016-08-17T03:27:21.379Z,22.31
2016-08-17T03:28:21.394Z,22.38
2016-08-17T03:29:21.409Z,22.36
2016-08-17T03:30:21.415Z,22.31
2016-08-17T03:31:21.406Z,22.42
2016-08-17T03:32:21.409Z,22.41
2016-08-17T03:33:21.433Z,22.45
2016-08-17T03:34:21.434Z,22.39
2016-08-17T03:35:21.452Z,22.36
2016-08-17T03:36:21.471Z,22.42
2016-08-17T03:37:21.473Z,22.33
2016-08-17T03:38:21.492Z,22.38
2016-08-17T03:39:21.477Z,22.42
2016-08-17T03:40:21.475Z,22.39
2016-08-17T03:41:21.501Z,22.36
2016-08-17T03:42:21.506Z,22.36
2016-08-17T03:43:21.525Z,22.31
2016-08-17T03:44:21.523Z,22.41
2016-08-17T03:45:21.551Z,22.41
2016-08-17T03:46:21.532Z,22.36
2016-08-17T03:47:21.538Z,22.38
2016-08-17T03:48:21.573Z,22.39
2016-08-17T03:49:21.561Z,22.45
2016-08-17T03:50:21.594Z,22.39
2016-08-17T03:51:21.572Z,22.41
2016-08-17T03:52:21.586Z,22.29
2016-08-17T03:53:22.284Z,22.41
2016-08-17T03:54:21.608Z,22.34
2016-08-17T03:55:21.630Z,22.44
2016-08-17T03:56:21.623Z,22.38
2016-08-17T03:57:21.642Z,22.36
2016-08-17T03:58:21.639Z,22.34
2016-08-17T03:59:21.670Z,22.36
2016-08-17T04:00:21.663Z,22.36
2016-08-17T04:01:21.675Z,22.38
2016-08-17T04:02:21.681Z,22.41
2016-08-17T04:03:21.671Z,22.42
2016-08-17T04:04:21.680Z,22.34
2016-08-17T04:05:21.707Z,22.34
2016-08-17T04:06:21.722Z,22.34
2016-08-17T04:07:21.704Z,22.42
2016-08-17T04:08:21.725Z,22.36
2016-08-17T04:09:21.737Z,22.44
2016-08-17T04:10:21.746Z,22.31
2016-08-17T04:11:21.775Z,22.36
2016-08-17T04:12:21.756Z,22.33
2016-08-17T04:13:21.793Z,22.39
2016-08-17T04:14:21.761Z,22.36
2016-08-17T04:15:21.798Z,22.39
2016-08-17T04:16:21.799Z,22.42
2016-08-17T04:17:21.815Z,22.39
2016-08-17T04:18:21.801Z,22.33
2016-08-17T04:19:21.817Z,22.42
2016-08-17T04:20:21.815Z,22.39
2016-08-17T04:21:21.847Z,22.39
2016-08-17T04:22:21.834Z,22.34
2016-08-17T04:23:21.869Z,22.36
2016-08-17T04:24:21.866Z,22.41
2016-08-17T04:25:21.874Z,22.36
2016-08-17T04:26:21.886Z,22.42
2016-08-17T04:27:21.892Z,22.38
2016-08-17T04:28:21.892Z,22.36
2016-08-17T04:29:21.915Z,22.41
2016-08-17T04:30:21.920Z,22.42
2016-08-17T04:31:21.907Z,22.39
2016-08-17T04:32:21.933Z,22.31
2016-08-17T04:33:21.942Z,22.36
2016-08-17T04:34:21.976Z,22.36
2016-08-17T04:35:21.967Z,22.36
2016-08-17T04:36:21.974Z,22.39
2016-08-17T04:37:21.996Z,22.3
2016-08-17T04:38:22.018Z,22.34
2016-08-17T04:39:22.018Z,22.44
2016-08-17T04:40:21.993Z,22.41
2016-08-17T04:41:22.017Z,22.3
2016-08-17T04:42:22.027Z,22.36
2016-08-17T04:43:22.038Z,22.44
2016-08-17T04:44:22.031Z,22.36
2016-08-17T04:45:22.030Z,22.38
2016-08-17T04:46:22.076Z,22.3
2016-08-17T04:47:22.088Z,22.36
2016-08-17T04:48:22.070Z,22.34
2016-08-17T04:49:22.098Z,22.34
2016-08-17T04:50:22.084Z,22.38
2016-08-17T04:51:22.086Z,22.33
2016-08-17T04:52:22.117Z,22.36
2016-08-17T04:53:22.118Z,22.29
2016-08-17T04:54:22.131Z,22.36
2016-08-17T04:55:22.132Z,22.38
2016-08-17T04:56:22.135Z,22.38
2016-08-17T04:57:22.152Z,22.38
2016-08-17T04:58:22.175Z,22.38
2016-08-17T04:59:22.167Z,22.39
2016-08-17T05:00:22.181Z,22.38
2016-08-17T05:01:22.195Z,22.39
2016-08-17T05:02:22.177Z,22.34
2016-08-17T05:03:22.196Z,22.34
2016-08-17T05:04:22.227Z,22.36
2016-08-17T05:05:22.238Z,22.42
2016-08-17T05:06:22.229Z,22.34
2016-08-17T05:07:22.219Z,22.36
2016-08-17T05:08:22.255Z,22.39
2016-08-17T05:09:22.257Z,22.31
2016-08-17T05:10:22.277Z,22.38
2016-08-17T05:11:22.275Z,22.42
2016-08-17T05:12:22.285Z,22.39
2016-08-17T05:13:22.287Z,22.36
2016-08-17T05:14:22.301Z,22.36
2016-08-17T05:15:22.294Z,22.38
2016-08-17T05:16:22.320Z,22.38
2016-08-17T05:17:22.309Z,22.36
2016-08-17T05:18:22.311Z,22.36
2016-08-17T05:19:22.325Z,22.36
2016-08-17T05:20:22.348Z,22.39
2016-08-17T05:21:22.375Z,22.41
2016-08-17T05:22:22.368Z,22.39
2016-08-17T05:23:22.369Z,22.34
2016-08-17T05:24:22.386Z,22.36
2016-08-17T05:25:22.373Z,22.39
2016-08-17T05:26:22.414Z,22.36
2016-08-17T05:27:22.412Z,22.36
2016-08-17T05:28:22.420Z,22.41
2016-08-17T05:29:22.418Z,22.36
2016-08-17T05:30:22.442Z,22.38
2016-08-17T05:31:22.437Z,22.36
2016-08-17T05:32:22.465Z,22.36
2016-08-17T05:33:22.440Z,22.38
2016-08-17T05:34:22.481Z,22.38
2016-08-17T05:35:22.485Z,22.31
2016-08-17T05:36:22.495Z,22.39
2016-08-17T05:37:22.497Z,22.38
2016-08-17T05:38:22.494Z,22.38
2016-08-17T05:39:22.531Z,22.39
2016-08-17T05:40:22.539Z,22.42
2016-08-17T05:41:22.535Z,22.36
2016-08-17T05:42:22.548Z,22.36
2016-08-17T05:43:22.553Z,22.36
2016-08-17T05:44:22.549Z,22.36
2016-08-17T05:45:22.839Z,22.38
2016-08-17T05:46:22.568Z,22.34
2016-08-17T05:47:22.585Z,22.41
2016-08-17T05:48:22.599Z,22.39
2016-08-17T05:49:22.599Z,22.39
2016-08-17T05:50:22.614Z,22.39
2016-08-17T05:51:22.633Z,22.34
2016-08-17T05:52:22.607Z,22.41
2016-08-17T05:53:22.628Z,22.38
2016-08-17T05:54:22.645Z,22.31
2016-08-17T05:55:23.328Z,22.36
2016-08-17T05:56:22.678Z,22.36
2016-08-17T05:57:22.682Z,22.39
2016-08-17T05:58:22.666Z,22.33
2016-08-17T05:59:22.694Z,22.38
2016-08-17T06:00:22.691Z,22.36
2016-08-17T06:01:22.710Z,22.31
2016-08-17T06:02:22.723Z,22.36
2016-08-17T06:03:22.719Z,22.34
2016-08-17T06:04:23.407Z,22.39
2016-08-17T06:05:22.730Z,22.36
2016-08-17T06:06:22.742Z,22.39
2016-08-17T06:07:22.748Z,22.42
2016-08-17T06:08:22.781Z,22.39
2016-08-17T06:09:22.773Z,22.34
2016-08-17T06:10:22.781Z,22.38
2016-08-17T06:11:22.806Z,22.38
2016-08-17T06:12:22.794Z,22.31
2016-08-17T06:13:22.799Z,22.45
2016-08-17T06:14:22.811Z,22.39
2016-08-17T06:15:22.817Z,22.34
2016-08-17T06:16:22.841Z,22.33
2016-08-17T06:17:22.829Z,22.44
2016-08-17T06:18:22.865Z,22.36
2016-08-17T06:19:22.856Z,22.38
2016-08-17T06:20:22.854Z,22.38
2016-08-17T06:21:22.873Z,22.36
2016-08-17T06:22:22.889Z,22.36
2016-08-17T06:23:22.899Z,22.31
2016-08-17T06:24:22.911Z,22.31
2016-08-17T06:25:22.911Z,22.36
2016-08-17T06:26:22.902Z,22.44
2016-08-17T06:27:22.935Z,22.36
2016-08-17T06:28:22.948Z,22.38
2016-08-17T06:29:22.959Z,22.38
2016-08-17T06:30:22.944Z,22.42
2016-08-17T06:31:22.959Z,22.31
2016-08-17T06:32:22.956Z,22.38
2016-08-17T06:33:22.959Z,22.39
2016-08-17T06:34:22.989Z,22.39
2016-08-17T06:35:22.982Z,22.44
2016-08-17T06:36:23.006Z,22.42
2016-08-17T06:37:22.996Z,22.41
2016-08-17T06:38:23.014Z,22.42
2016-08-17T06:39:23.009Z,22.46
2016-08-17T06:40:23.014Z,22.38
2016-08-17T06:41:23.043Z,22.44
2016-08-17T06:42:23.052Z,22.44
2016-08-17T06:43:23.059Z,22.45
2016-08-17T06:44:23.083Z,22.45
2016-08-17T06:45:23.074Z,22.49
2016-08-17T06:46:23.090Z,22.41
2016-08-17T06:47:23.107Z,22.41
2016-08-17T06:48:23.120Z,22.44
2016-08-17T06:49:23.117Z,22.39
2016-08-17T06:50:23.137Z,22.45
2016-08-17T06:51:23.140Z,22.48
2016-08-17T06:52:23.140Z,22.45
2016-08-17T06:53:23.123Z,22.44
2016-08-17T06:54:23.177Z,22.44
2016-08-17T06:55:23.154Z,22.39
2016-08-17T06:56:23.178Z,22.46
2016-08-17T06:57:23.188Z,22.48
2016-08-17T06:58:23.185Z,22.48
2016-08-17T06:59:23.192Z,22.44
2016-08-17T07:00:23.195Z,22.52
2016-08-17T07:01:23.220Z,22.51
2016-08-17T07:02:23.220Z,22.46
2016-08-17T07:03:23.245Z,22.48
2016-08-17T07:04:23.245Z,22.51
2016-08-17T07:05:23.261Z,22.54
2016-08-17T07:06:23.263Z,22.51
2016-08-17T07:07:23.275Z,22.54
2016-08-17T07:08:23.277Z,22.57
2016-08-17T07:09:23.993Z,22.54
2016-08-17T07:10:23.294Z,22.54
2016-08-17T07:11:23.314Z,22.64
2016-08-17T07:12:23.307Z,22.55
2016-08-17T07:13:23.311Z,22.6
2016-08-17T07:14:23.319Z,22.55
2016-08-17T07:15:23.328Z,22.57
2016-08-17T07:16:23.327Z,22.59
2016-08-17T07:17:23.338Z,22.6
2016-08-17T07:18:23.361Z,22.59
2016-08-17T07:19:23.368Z,22.69
2016-08-17T07:20:23.363Z,22.61
2016-08-17T07:21:23.387Z,22.63
2016-08-17T07:22:23.427Z,22.7
2016-08-17T07:23:23.419Z,22.57
2016-08-17T07:24:23.420Z,22.69
2016-08-17T07:25:23.439Z,22.7
2016-08-17T07:26:23.423Z,22.69
2016-08-17T07:27:23.444Z,22.66
2016-08-17T07:28:23.435Z,22.7
2016-08-17T07:29:23.471Z,22.7
2016-08-17T07:30:23.467Z,22.73
2016-08-17T07:31:23.473Z,22.73
2016-08-17T07:32:23.493Z,22.75
2016-08-17T07:33:23.503Z,22.71
2016-08-17T07:34:23.531Z,22.73
2016-08-17T07:35:23.520Z,22.7
2016-08-17T07:36:23.514Z,22.67
2016-08-17T07:37:23.539Z,22.69
2016-08-17T07:38:23.520Z,22.73
2016-08-17T07:39:23.551Z,22.76
2016-08-17T07:40:23.540Z,22.84
2016-08-17T07:41:23.546Z,22.82
2016-08-17T07:42:23.624Z,22.86
2016-08-17T07:43:23.557Z,22.81
2016-08-17T07:44:23.588Z,22.85
2016-08-17T07:45:23.598Z,22.84
2016-08-17T07:46:23.581Z,22.78
2016-08-17T07:47:23.624Z,22.86
2016-08-17T07:48:23.632Z,22.88
2016-08-17T07:49:23.643Z,22.85
2016-08-17T07:50:23.620Z,22.85
2016-08-17T07:51:23.660Z,22.91
2016-08-17T07:52:23.644Z,22.88
2016-08-17T07:53:23.672Z,22.82
2016-08-17T07:54:23.669Z,22.89
2016-08-17T07:55:23.679Z,22.91
2016-08-17T07:56:23.706Z,22.92
2016-08-17T07:57:23.718Z,22.84
2016-08-17T07:58:23.693Z,22.94
2016-08-17T07:59:23.728Z,22.91
2016-08-17T08:00:23.739Z,22.91
2016-08-17T08:01:23.732Z,22.91
2016-08-17T08:02:23.731Z,22.89
2016-08-17T08:03:23.763Z,22.89
2016-08-17T08:04:23.743Z,22.85
2016-08-17T08:05:23.790Z,22.92
2016-08-17T08:06:23.782Z,22.86
2016-08-17T08:07:23.802Z,22.91
2016-08-17T08:08:23.811Z,22.88
2016-08-17T08:09:23.815Z,22.88
2016-08-17T08:10:23.822Z,22.91
2016-08-17T08:11:23.835Z,22.91
2016-08-17T08:12:23.819Z,22.96
2016-08-17T08:13:23.839Z,22.91
2016-08-17T08:14:23.861Z,22.97
2016-08-17T08:15:24.583Z,22.96
2016-08-17T08:16:23.864Z,23.04
2016-08-17T08:17:23.862Z,23.04
2016-08-17T08:18:23.905Z,23
2016-08-17T08:19:23.883Z,23.04
2016-08-17T08:20:23.898Z,23.1
2016-08-17T08:21:23.917Z,22.96
2016-08-17T08:22:23.911Z,23.04
2016-08-17T08:23:23.919Z,23.01
2016-08-17T08:24:23.932Z,23.03
2016-08-17T08:25:23.944Z,23.1
2016-08-17T08:26:23.951Z,23
2016-08-17T08:27:23.961Z,23.04
2016-08-17T08:28:23.967Z,23
2016-08-17T08:29:23.969Z,23.03
2016-08-17T08:30:23.982Z,23.03
2016-08-17T08:31:24.002Z,23.04
2016-08-17T08:32:23.998Z,22.96
2016-08-17T08:33:24.003Z,23.03
2016-08-17T08:34:24.027Z,23.09
2016-08-17T08:35:24.033Z,23.03
2016-08-17T08:36:24.040Z,23.01
2016-08-17T08:37:24.073Z,22.99
2016-08-17T08:38:24.073Z,23.06
2016-08-17T08:39:24.059Z,23.1
2016-08-17T08:40:24.088Z,23.07
2016-08-17T08:41:24.099Z,23.06
2016-08-17T08:42:24.082Z,23.1
2016-08-17T08:43:24.126Z,23.09
2016-08-17T08:44:24.097Z,23.06
2016-08-17T08:45:24.121Z,23.04
2016-08-17T08:46:24.148Z,23.06
2016-08-17T08:47:24.143Z,23.06
2016-08-17T08:48:24.157Z,23.01
2016-08-17T08:49:24.160Z,23.04
2016-08-17T08:50:24.160Z,23.03
2016-08-17T08:51:24.181Z,23.07
2016-08-17T08:52:24.177Z,23.12
2016-08-17T08:53:24.171Z,23.09
2016-08-17T08:54:24.195Z,23.14
2016-08-17T08:55:24.215Z,23.06
2016-08-17T08:56:24.213Z,23.07
2016-08-17T08:57:24.229Z,23.1
2016-08-17T08:58:24.245Z,23
2016-08-17T08:59:24.254Z,23.01
2016-08-17T09:00:24.273Z,22.99
2016-08-17T09:01:24.261Z,23
2016-08-17T09:02:24.282Z,22.97
2016-08-17T09:03:24.296Z,23.03
2016-08-17T09:04:24.291Z,23
2016-08-17T09:05:24.299Z,23.04
2016-08-17T09:06:24.316Z,23.12
2016-08-17T09:07:24.310Z,23.06
2016-08-17T09:08:24.317Z,23.12
2016-08-17T09:09:24.331Z,23.09
2016-08-17T09:10:24.344Z,23.1
2016-08-17T09:11:24.350Z,23.14
2016-08-17T09:12:24.364Z,23.14
2016-08-17T09:13:24.381Z,23.22
2016-08-17T09:14:24.387Z,23.19
2016-08-17T09:15:24.395Z,23.18
2016-08-17T09:16:24.422Z,23.19
2016-08-17T09:17:24.396Z,23.19
2016-08-17T09:18:24.403Z,23.21
2016-08-17T09:19:24.407Z,23.19
2016-08-17T09:20:24.441Z,23.16
2016-08-17T09:21:24.422Z,23.18
2016-08-17T09:22:24.451Z,23.12
2016-08-17T09:23:24.435Z,23.18
2016-08-17T09:24:24.488Z,23.12
2016-08-17T09:25:24.457Z,23.07
2016-08-17T09:26:24.465Z,23.04
2016-08-17T09:27:24.507Z,23.07
2016-08-17T09:28:24.513Z,23.12
2016-08-17T09:29:24.491Z,23.29
2016-08-17T09:30:24.523Z,23.15
2016-08-17T09:31:24.525Z,23.14
2016-08-17T09:32:24.530Z,23.28
2016-08-17T09:33:24.551Z,23.25
2016-08-17T09:34:24.553Z,23.32
2016-08-17T09:35:24.538Z,23.29
2016-08-17T09:36:24.554Z,23.38
2016-08-17T09:37:24.576Z,23.35
2016-08-17T09:38:24.597Z,23.35
2016-08-17T09:39:24.590Z,23.35
2016-08-17T09:40:24.628Z,23.34
2016-08-17T09:41:24.607Z,23.35
2016-08-17T09:42:24.729Z,23.24
2016-08-17T09:43:24.629Z,23.16
2016-08-17T09:44:24.625Z,23.24
2016-08-17T09:45:24.641Z,23.18
2016-08-17T09:46:24.651Z,23.15
2016-08-17T09:47:24.681Z,23.16
2016-08-17T09:48:24.664Z,23.24
2016-08-17T09:49:24.693Z,23.24
2016-08-17T09:50:24.689Z,23.32
2016-08-17T09:51:24.719Z,23.25
2016-08-17T09:52:24.707Z,23.37
2016-08-17T09:53:24.704Z,23.26
2016-08-17T09:54:24.728Z,23.26
2016-08-17T09:55:24.721Z,23.28
2016-08-17T09:56:24.726Z,23.35
2016-08-17T09:57:24.753Z,23.37
2016-08-17T09:58:24.733Z,23.41
2016-08-17T09:59:24.761Z,23.29
2016-08-17T10:00:24.753Z,23.34
2016-08-17T10:01:24.758Z,23.18
2016-08-17T10:02:24.793Z,23.12
2016-08-17T10:03:24.783Z,23.07
2016-08-17T10:04:24.799Z,23.16
2016-08-17T10:05:24.802Z,23.16
2016-08-17T10:06:24.806Z,23.19
2016-08-17T10:07:24.841Z,23.04
2016-08-17T10:08:24.832Z,23.06
2016-08-17T10:09:24.844Z,23.19
2016-08-17T10:10:24.837Z,23.15
2016-08-17T10:11:24.877Z,23.19
2016-08-17T10:12:24.878Z,23.22
2016-08-17T10:13:24.894Z,23.28
2016-08-17T10:14:24.879Z,23.16
2016-08-17T10:15:24.896Z,23.24
2016-08-17T10:16:25.576Z,23.25
2016-08-17T10:17:24.913Z,23.25
2016-08-17T10:18:24.919Z,23.28
2016-08-17T10:19:24.933Z,23.19
2016-08-17T10:20:24.933Z,23.19
2016-08-17T10:21:24.945Z,23.09
2016-08-17T10:22:24.953Z,23.09
2016-08-17T10:23:24.962Z,23.18
2016-08-17T10:24:24.954Z,23.32
2016-08-17T10:25:25.007Z,23.37
2016-08-17T10:26:24.974Z,23.35
2016-08-17T10:27:24.995Z,23.55
2016-08-17T10:28:25.002Z,23.55
2016-08-17T10:29:25.034Z,23.42
2016-08-17T10:30:25.036Z,23.35
2016-08-17T10:31:25.033Z,23.28
2016-08-17T10:32:25.041Z,23.16
2016-08-17T10:33:25.052Z,23.19
2016-08-17T10:34:25.065Z,23.34
2016-08-17T10:35:25.065Z,23.35
2016-08-17T10:36:25.081Z,23.4
2016-08-17T10:37:25.090Z,23.37
2016-08-17T10:38:25.093Z,23.41
2016-08-17T10:39:25.082Z,23.38
2016-08-17T10:40:25.115Z,23.34
2016-08-17T10:41:25.113Z,23.4
2016-08-17T10:42:25.117Z,23.4
2016-08-17T10:43:25.133Z,23.34
2016-08-17T10:44:25.127Z,23.37
2016-08-17T10:45:25.174Z,23.41
2016-08-17T10:46:25.137Z,23.34
2016-08-17T10:47:25.156Z,23.37
2016-08-17T10:48:25.171Z,23.5
2016-08-17T10:49:25.188Z,23.48
2016-08-17T10:50:25.196Z,23.56
2016-08-17T10:51:25.212Z,23.55
2016-08-17T10:52:25.199Z,23.56
2016-08-17T10:53:25.186Z,23.56
2016-08-17T10:54:25.227Z,23.62
2016-08-17T10:55:25.231Z,23.63
2016-08-17T10:56:25.255Z,23.75
2016-08-17T10:57:25.266Z,23.79
2016-08-17T10:58:25.240Z,23.82
2016-08-17T10:59:25.268Z,23.77
2016-08-17T11:00:25.288Z,23.82
2016-08-17T11:01:25.295Z,23.84
2016-08-17T11:02:25.289Z,23.79
2016-08-17T11:03:26.009Z,23.78
2016-08-17T11:04:25.304Z,23.89
2016-08-17T11:05:25.340Z,23.96
2016-08-17T11:06:25.327Z,24.04
2016-08-17T11:07:25.323Z,24.04
2016-08-17T11:08:25.338Z,24.09
2016-08-17T11:09:25.369Z,24.03
2016-08-17T11:10:26.076Z,24.15
2016-08-17T11:11:25.373Z,24.11
2016-08-17T11:12:25.393Z,24.11
2016-08-17T11:13:25.378Z,24.12
2016-08-17T11:14:25.394Z,24.19
2016-08-17T11:15:25.395Z,24.19
2016-08-17T11:16:25.406Z,24.15
2016-08-17T11:17:25.404Z,24.22
2016-08-17T11:18:25.419Z,24.27
2016-08-17T11:19:25.454Z,24.18
2016-08-17T11:20:25.447Z,24.27
2016-08-17T11:21:25.451Z,24.17
2016-08-17T11:22:25.468Z,24.27
2016-08-17T11:23:25.477Z,24.27
2016-08-17T11:24:25.468Z,24.27
2016-08-17T11:25:25.472Z,24.34
2016-08-17T11:26:25.502Z,24.3
2016-08-17T11:27:25.501Z,24.32
2016-08-17T11:28:25.519Z,24.39
2016-08-17T11:29:25.518Z,24.37
2016-08-17T11:30:25.532Z,24.4
2016-08-17T11:31:25.544Z,24.37
2016-08-17T11:32:25.551Z,24.42
2016-08-17T11:33:25.562Z,24.55
2016-08-17T11:34:25.585Z,24.4
2016-08-17T11:35:25.572Z,24.54
2016-08-17T11:36:25.608Z,24.58
2016-08-17T11:37:25.600Z,24.54
2016-08-17T11:38:25.595Z,24.63
2016-08-17T11:39:25.615Z,24.66
2016-08-17T11:40:25.610Z,24.59
2016-08-17T11:41:25.613Z,24.74
2016-08-17T11:42:25.637Z,24.66
2016-08-17T11:43:26.349Z,24.61
2016-08-17T11:44:25.667Z,24.74
2016-08-17T11:45:25.671Z,24.55
2016-08-17T11:46:25.671Z,24.56
2016-08-17T11:47:25.690Z,24.56
2016-08-17T11:48:25.706Z,24.56
2016-08-17T11:49:25.717Z,24.59
2016-08-17T11:50:25.702Z,24.49
2016-08-17T11:51:25.726Z,24.44
2016-08-17T11:52:25.751Z,24.42
2016-08-17T11:53:25.726Z,24.34
2016-08-17T11:54:25.767Z,24.39
2016-08-17T11:55:25.757Z,24.4
2016-08-17T11:56:25.751Z,24.49
2016-08-17T11:57:25.796Z,24.61
2016-08-17T11:58:25.777Z,24.56
2016-08-17T11:59:25.787Z,24.67
2016-08-17T12:00:25.809Z,24.71
2016-08-17T12:01:25.802Z,24.59
2016-08-17T12:02:25.822Z,24.64
2016-08-17T12:03:25.839Z,24.59
2016-08-17T12:04:25.838Z,24.55
2016-08-17T12:05:25.861Z,24.58
2016-08-17T12:06:25.856Z,24.54
2016-08-17T12:07:25.850Z,24.7
2016-08-17T12:08:25.871Z,24.7
2016-08-17T12:09:25.868Z,24.71
2016-08-17T12:10:25.894Z,24.71
2016-08-17T12:11:25.909Z,24.75
2016-08-17T12:12:25.919Z,24.74
2016-08-17T12:13:25.926Z,24.66
2016-08-17T12:14:25.914Z,24.7
2016-08-17T12:15:25.965Z,24.71
2016-08-17T12:16:25.969Z,24.74
2016-08-17T12:17:25.959Z,24.89
2016-08-17T12:18:25.982Z,24.77
2016-08-17T12:19:26.003Z,24.83
2016-08-17T12:20:25.988Z,24.94
2016-08-17T12:21:26.005Z,25.02
2016-08-17T12:22:26.017Z,24.97
2016-08-17T12:23:26.020Z,25.01
2016-08-17T12:24:26.027Z,24.92
2016-08-17T12:25:26.056Z,24.93
2016-08-17T12:26:26.039Z,24.96
2016-08-17T12:27:26.042Z,24.9
2016-08-17T12:28:26.069Z,24.9
2016-08-17T12:29:26.094Z,24.94
2016-08-17T12:30:26.092Z,24.92
2016-08-17T12:31:26.096Z,25.01
2016-08-17T12:32:26.099Z,25.02
2016-08-17T12:33:26.116Z,25.08
2016-08-17T12:34:26.133Z,25.05
2016-08-17T12:35:26.132Z,25.07
2016-08-17T12:36:26.122Z,24.94
2016-08-17T12:37:26.127Z,24.92
2016-08-17T12:38:26.158Z,25.01
2016-08-17T12:39:26.164Z,24.96
2016-08-17T12:40:26.186Z,25.05
2016-08-17T12:41:26.192Z,25.01
2016-08-17T12:42:26.197Z,25.02
2016-08-17T12:43:26.202Z,24.94
2016-08-17T12:44:26.199Z,24.87
2016-08-17T12:45:26.228Z,24.89
2016-08-17T12:46:26.246Z,24.83
2016-08-17T12:47:26.226Z,24.94
2016-08-17T12:48:26.245Z,25.01
2016-08-17T12:49:26.264Z,25.09
2016-08-17T12:50:26.254Z,25.14
2016-08-17T12:51:26.269Z,25.17
2016-08-17T12:52:26.268Z,25.2
2016-08-17T12:53:26.307Z,25.24
2016-08-17T12:54:26.305Z,25.2